sensor_id;sensor_type;location;lat;lon;timestamp;P1;durP1;ratioP1;P2;durP2;ratioP2
68942;SDS011;60852;52.190;4.422;2023-02-11T00:01:47;11.38;;;8.46;;
68942;SDS011;60852;52.190;4.422;2023-02-11T00:04:12;10.75;;;7.99;;
68942;SDS011;60852;52.190;4.422;2023-02-11T00:06:37;11.63;;;8.39;;
68942;SDS011;60852;52.190;4.422;2023-02-11T00:09:03;11.97;;;8.56;;
68942;SDS011;60852;52.190;4.422;2023-02-11T00:11:30;12.84;;;9.13;;
68942;SDS011;60852;52.190;4.422;2023-02-11T00:13:56;11.69;;;8.30;;
68942;SDS011;60852;52.190;4.422;2023-02-11T00:16:26;12.21;;;8.65;;
68942;SDS011;60852;52.190;4.422;2023-02-11T00:18:53;10.85;;;8.04;;
68942;SDS011;60852;52.190;4.422;2023-02-11T00:21:21;10.88;;;8.16;;
68942;SDS011;60852;52.190;4.422;2023-02-11T00:23:49;11.81;;;8.68;;
68942;SDS011;60852;52.190;4.422;2023-02-11T00:26:19;11.84;;;8.77;;
68942;SDS011;60852;52.190;4.422;2023-02-11T00:28:47;12.40;;;8.97;;
68942;SDS011;60852;52.190;4.422;2023-02-11T00:31:14;12.80;;;9.14;;
68942;SDS011;60852;52.190;4.422;2023-02-11T00:33:41;12.38;;;8.91;;
68942;SDS011;60852;52.190;4.422;2023-02-11T00:36:08;12.15;;;8.95;;
68942;SDS011;60852;52.190;4.422;2023-02-11T00:38:37;12.52;;;9.32;;
68942;SDS011;60852;52.190;4.422;2023-02-11T00:41:03;12.10;;;9.04;;
68942;SDS011;60852;52.190;4.422;2023-02-11T00:43:28;11.07;;;8.71;;
68942;SDS011;60852;52.190;4.422;2023-02-11T00:45:54;10.73;;;8.60;;
68942;SDS011;60852;52.190;4.422;2023-02-11T00:48:19;10.51;;;8.47;;
68942;SDS011;60852;52.190;4.422;2023-02-11T00:50:44;11.61;;;9.30;;
68942;SDS011;60852;52.190;4.422;2023-02-11T00:53:10;11.13;;;9.10;;
68942;SDS011;60852;52.190;4.422;2023-02-11T00:55:36;11.92;;;9.32;;
68942;SDS011;60852;52.190;4.422;2023-02-11T00:58:01;11.51;;;9.26;;
68942;SDS011;60852;52.190;4.422;2023-02-11T01:00:27;11.81;;;9.44;;
68942;SDS011;60852;52.190;4.422;2023-02-11T01:02:52;10.99;;;8.94;;
68942;SDS011;60852;52.190;4.422;2023-02-11T01:05:18;11.66;;;9.37;;
68942;SDS011;60852;52.190;4.422;2023-02-11T01:07:44;12.16;;;9.50;;
68942;SDS011;60852;52.190;4.422;2023-02-11T01:10:10;11.30;;;8.98;;
68942;SDS011;60852;52.190;4.422;2023-02-11T01:12:35;12.00;;;9.53;;
68942;SDS011;60852;52.190;4.422;2023-02-11T01:15:02;11.68;;;9.50;;
68942;SDS011;60852;52.190;4.422;2023-02-11T01:17:28;10.87;;;8.89;;
68942;SDS011;60852;52.190;4.422;2023-02-11T01:19:53;12.33;;;9.82;;
68942;SDS011;60852;52.190;4.422;2023-02-11T01:22:18;12.21;;;9.79;;
68942;SDS011;60852;52.190;4.422;2023-02-11T01:24:44;11.76;;;9.69;;
68942;SDS011;60852;52.190;4.422;2023-02-11T01:27:09;11.19;;;9.54;;
68942;SDS011;60852;52.190;4.422;2023-02-11T01:29:35;11.86;;;9.96;;
68942;SDS011;60852;52.190;4.422;2023-02-11T01:32:00;11.64;;;9.74;;
68942;SDS011;60852;52.190;4.422;2023-02-11T01:34:26;11.99;;;10.02;;
68942;SDS011;60852;52.190;4.422;2023-02-11T01:36:55;12.29;;;10.24;;
68942;SDS011;60852;52.190;4.422;2023-02-11T01:39:24;11.25;;;9.69;;
68942;SDS011;60852;52.190;4.422;2023-02-11T01:41:51;11.80;;;10.07;;
68942;SDS011;60852;52.190;4.422;2023-02-11T01:46:56;11.64;;;9.93;;
68942;SDS011;60852;52.190;4.422;2023-02-11T01:49:31;11.66;;;10.11;;
68942;SDS011;60852;52.190;4.422;2023-02-11T01:54:44;12.21;;;10.34;;
68942;SDS011;60852;52.190;4.422;2023-02-11T01:57:33;12.34;;;10.56;;
68942;SDS011;60852;52.190;4.422;2023-02-11T02:00:13;11.06;;;9.86;;
68942;SDS011;60852;52.190;4.422;2023-02-11T02:05:50;12.85;;;11.14;;
68942;SDS011;60852;52.190;4.422;2023-02-11T02:10:50;13.06;;;11.37;;
68942;SDS011;60852;52.190;4.422;2023-02-11T02:13:20;12.25;;;10.77;;
68942;SDS011;60852;52.190;4.422;2023-02-11T02:15:54;12.36;;;10.80;;
68942;SDS011;60852;52.190;4.422;2023-02-11T02:26:37;13.42;;;11.89;;
68942;SDS011;60852;52.190;4.422;2023-02-11T02:29:30;13.25;;;11.67;;
68942;SDS011;60852;52.190;4.422;2023-02-11T02:41:00;13.20;;;11.85;;
68942;SDS011;60852;52.190;4.422;2023-02-11T02:43:33;13.42;;;11.99;;
68942;SDS011;60852;52.190;4.422;2023-02-11T02:46:44;12.97;;;11.89;;
68942;SDS011;60852;52.190;4.422;2023-02-11T02:48:52;13.92;;;12.51;;
68942;SDS011;60852;52.190;4.422;2023-02-11T02:51:29;14.30;;;12.80;;
68942;SDS011;60852;52.190;4.422;2023-02-11T03:02:59;14.77;;;13.78;;
68942;SDS011;60852;52.190;4.422;2023-02-11T03:05:48;15.16;;;14.01;;
68942;SDS011;60852;52.190;4.422;2023-02-11T03:08:33;15.51;;;14.41;;
68942;SDS011;60852;52.190;4.422;2023-02-11T03:11:08;14.71;;;13.80;;
68942;SDS011;60852;52.190;4.422;2023-02-11T03:13:39;15.55;;;14.44;;
68942;SDS011;60852;52.190;4.422;2023-02-11T03:16:14;15.83;;;14.50;;
68942;SDS011;60852;52.190;4.422;2023-02-11T03:18:49;15.42;;;14.34;;
68942;SDS011;60852;52.190;4.422;2023-02-11T03:21:20;15.51;;;14.49;;
68942;SDS011;60852;52.190;4.422;2023-02-11T03:23:52;15.58;;;14.59;;
68942;SDS011;60852;52.190;4.422;2023-02-11T03:26:31;16.33;;;15.02;;
68942;SDS011;60852;52.190;4.422;2023-02-11T03:32:03;15.45;;;14.57;;
68942;SDS011;60852;52.190;4.422;2023-02-11T03:37:06;16.22;;;15.09;;
68942;SDS011;60852;52.190;4.422;2023-02-11T03:39:42;17.59;;;16.19;;
68942;SDS011;60852;52.190;4.422;2023-02-11T03:42:33;16.42;;;15.42;;
68942;SDS011;60852;52.190;4.422;2023-02-11T03:45:11;16.97;;;16.01;;
68942;SDS011;60852;52.190;4.422;2023-02-11T03:47:44;17.27;;;16.24;;
68942;SDS011;60852;52.190;4.422;2023-02-11T03:50:15;17.48;;;16.66;;
68942;SDS011;60852;52.190;4.422;2023-02-11T03:52:42;18.91;;;17.46;;
68942;SDS011;60852;52.190;4.422;2023-02-11T03:55:12;18.60;;;17.35;;
68942;SDS011;60852;52.190;4.422;2023-02-11T03:57:41;17.73;;;16.82;;
68942;SDS011;60852;52.190;4.422;2023-02-11T04:00:07;18.54;;;17.75;;
68942;SDS011;60852;52.190;4.422;2023-02-11T04:02:35;18.76;;;17.82;;
68942;SDS011;60852;52.190;4.422;2023-02-11T04:05:02;18.93;;;17.67;;
68942;SDS011;60852;52.190;4.422;2023-02-11T04:07:28;19.33;;;18.27;;
68942;SDS011;60852;52.190;4.422;2023-02-11T04:09:54;19.66;;;18.78;;
68942;SDS011;60852;52.190;4.422;2023-02-11T04:12:20;20.16;;;19.02;;
68942;SDS011;60852;52.190;4.422;2023-02-11T04:14:45;20.93;;;19.67;;
68942;SDS011;60852;52.190;4.422;2023-02-11T04:17:11;19.48;;;18.62;;
68942;SDS011;60852;52.190;4.422;2023-02-11T04:19:37;21.41;;;20.28;;
68942;SDS011;60852;52.190;4.422;2023-02-11T04:22:03;21.18;;;20.16;;
68942;SDS011;60852;52.190;4.422;2023-02-11T04:24:29;22.76;;;21.32;;
68942;SDS011;60852;52.190;4.422;2023-02-11T04:26:55;22.98;;;21.54;;
68942;SDS011;60852;52.190;4.422;2023-02-11T04:29:20;23.62;;;22.35;;
68942;SDS011;60852;52.190;4.422;2023-02-11T04:31:46;22.79;;;21.88;;
68942;SDS011;60852;52.190;4.422;2023-02-11T04:34:12;23.44;;;22.58;;
68942;SDS011;60852;52.190;4.422;2023-02-11T04:36:37;23.11;;;22.09;;
68942;SDS011;60852;52.190;4.422;2023-02-11T04:39:03;23.50;;;22.65;;
68942;SDS011;60852;52.190;4.422;2023-02-11T04:41:29;23.30;;;22.28;;
68942;SDS011;60852;52.190;4.422;2023-02-11T04:43:54;24.18;;;23.14;;
68942;SDS011;60852;52.190;4.422;2023-02-11T04:46:20;23.65;;;22.87;;
68942;SDS011;60852;52.190;4.422;2023-02-11T04:48:45;23.37;;;22.39;;
68942;SDS011;60852;52.190;4.422;2023-02-11T04:51:11;24.68;;;23.23;;
68942;SDS011;60852;52.190;4.422;2023-02-11T04:53:36;24.61;;;23.40;;
68942;SDS011;60852;52.190;4.422;2023-02-11T04:56:02;25.01;;;23.96;;
68942;SDS011;60852;52.190;4.422;2023-02-11T04:58:28;25.48;;;24.22;;
68942;SDS011;60852;52.190;4.422;2023-02-11T05:00:53;25.26;;;24.27;;
68942;SDS011;60852;52.190;4.422;2023-02-11T05:03:19;24.95;;;24.08;;
68942;SDS011;60852;52.190;4.422;2023-02-11T05:05:44;25.03;;;24.17;;
68942;SDS011;60852;52.190;4.422;2023-02-11T05:08:11;24.96;;;24.14;;
68942;SDS011;60852;52.190;4.422;2023-02-11T05:10:37;25.54;;;24.54;;
68942;SDS011;60852;52.190;4.422;2023-02-11T05:13:03;27.07;;;25.97;;
68942;SDS011;60852;52.190;4.422;2023-02-11T05:15:28;25.43;;;24.40;;
68942;SDS011;60852;52.190;4.422;2023-02-11T05:17:54;26.17;;;24.98;;
68942;SDS011;60852;52.190;4.422;2023-02-11T05:20:20;25.64;;;24.76;;
68942;SDS011;60852;52.190;4.422;2023-02-11T05:22:46;24.64;;;23.96;;
68942;SDS011;60852;52.190;4.422;2023-02-11T05:25:12;24.96;;;23.95;;
68942;SDS011;60852;52.190;4.422;2023-02-11T05:27:38;25.62;;;24.83;;
68942;SDS011;60852;52.190;4.422;2023-02-11T05:30:04;25.20;;;24.39;;
68942;SDS011;60852;52.190;4.422;2023-02-11T05:32:30;25.42;;;24.72;;
68942;SDS011;60852;52.190;4.422;2023-02-11T05:34:56;25.79;;;25.02;;
68942;SDS011;60852;52.190;4.422;2023-02-11T05:37:21;27.27;;;26.40;;
68942;SDS011;60852;52.190;4.422;2023-02-11T05:39:46;27.45;;;26.01;;
68942;SDS011;60852;52.190;4.422;2023-02-11T05:42:12;28.18;;;26.91;;
68942;SDS011;60852;52.190;4.422;2023-02-11T05:44:38;27.52;;;26.50;;
68942;SDS011;60852;52.190;4.422;2023-02-11T05:47:03;27.62;;;26.46;;
68942;SDS011;60852;52.190;4.422;2023-02-11T05:49:29;26.89;;;26.14;;
68942;SDS011;60852;52.190;4.422;2023-02-11T05:51:55;27.74;;;26.75;;
68942;SDS011;60852;52.190;4.422;2023-02-11T05:54:20;27.67;;;26.75;;
68942;SDS011;60852;52.190;4.422;2023-02-11T05:56:46;27.26;;;26.24;;
68942;SDS011;60852;52.190;4.422;2023-02-11T05:59:14;28.26;;;27.16;;
68942;SDS011;60852;52.190;4.422;2023-02-11T06:01:40;27.92;;;26.88;;
68942;SDS011;60852;52.190;4.422;2023-02-11T06:04:05;27.90;;;26.98;;
68942;SDS011;60852;52.190;4.422;2023-02-11T06:06:31;28.66;;;27.51;;
68942;SDS011;60852;52.190;4.422;2023-02-11T06:08:56;27.91;;;26.91;;
68942;SDS011;60852;52.190;4.422;2023-02-11T06:11:22;27.89;;;27.06;;
68942;SDS011;60852;52.190;4.422;2023-02-11T06:13:47;28.36;;;27.25;;
68942;SDS011;60852;52.190;4.422;2023-02-11T06:16:13;28.55;;;27.39;;
68942;SDS011;60852;52.190;4.422;2023-02-11T06:18:38;29.25;;;27.63;;
68942;SDS011;60852;52.190;4.422;2023-02-11T06:21:07;28.96;;;27.76;;
68942;SDS011;60852;52.190;4.422;2023-02-11T06:23:34;28.06;;;26.89;;
68942;SDS011;60852;52.190;4.422;2023-02-11T06:26:04;28.21;;;27.05;;
68942;SDS011;60852;52.190;4.422;2023-02-11T06:28:32;27.24;;;26.58;;
68942;SDS011;60852;52.190;4.422;2023-02-11T06:31:06;28.82;;;27.47;;
68942;SDS011;60852;52.190;4.422;2023-02-11T06:33:32;27.70;;;26.63;;
68942;SDS011;60852;52.190;4.422;2023-02-11T06:35:58;29.20;;;27.84;;
68942;SDS011;60852;52.190;4.422;2023-02-11T06:38:24;28.56;;;27.57;;
68942;SDS011;60852;52.190;4.422;2023-02-11T06:40:49;28.64;;;27.61;;
68942;SDS011;60852;52.190;4.422;2023-02-11T06:43:15;28.11;;;27.13;;
68942;SDS011;60852;52.190;4.422;2023-02-11T06:45:41;28.80;;;27.77;;
68942;SDS011;60852;52.190;4.422;2023-02-11T06:48:07;28.59;;;27.48;;
68942;SDS011;60852;52.190;4.422;2023-02-11T06:50:33;27.01;;;26.31;;
68942;SDS011;60852;52.190;4.422;2023-02-11T06:52:58;28.09;;;27.09;;
68942;SDS011;60852;52.190;4.422;2023-02-11T06:55:24;28.34;;;27.04;;
68942;SDS011;60852;52.190;4.422;2023-02-11T06:57:50;27.96;;;26.97;;
68942;SDS011;60852;52.190;4.422;2023-02-11T07:00:15;26.92;;;26.21;;
68942;SDS011;60852;52.190;4.422;2023-02-11T07:02:41;28.26;;;27.20;;
68942;SDS011;60852;52.190;4.422;2023-02-11T07:05:07;27.22;;;26.29;;
68942;SDS011;60852;52.190;4.422;2023-02-11T07:07:32;27.15;;;25.86;;
68942;SDS011;60852;52.190;4.422;2023-02-11T07:09:58;27.07;;;25.92;;
68942;SDS011;60852;52.190;4.422;2023-02-11T07:12:23;26.29;;;25.46;;
68942;SDS011;60852;52.190;4.422;2023-02-11T07:14:49;26.43;;;25.52;;
68942;SDS011;60852;52.190;4.422;2023-02-11T07:17:14;26.65;;;25.61;;
68942;SDS011;60852;52.190;4.422;2023-02-11T07:19:40;26.64;;;25.59;;
68942;SDS011;60852;52.190;4.422;2023-02-11T07:22:05;26.25;;;25.50;;
68942;SDS011;60852;52.190;4.422;2023-02-11T07:24:31;26.02;;;24.95;;
68942;SDS011;60852;52.190;4.422;2023-02-11T07:26:56;26.29;;;25.36;;
68942;SDS011;60852;52.190;4.422;2023-02-11T07:29:22;26.01;;;25.31;;
68942;SDS011;60852;52.190;4.422;2023-02-11T07:31:47;26.15;;;25.33;;
68942;SDS011;60852;52.190;4.422;2023-02-11T07:34:13;25.31;;;24.66;;
68942;SDS011;60852;52.190;4.422;2023-02-11T07:36:38;25.97;;;25.10;;
68942;SDS011;60852;52.190;4.422;2023-02-11T07:39:04;26.50;;;25.57;;
68942;SDS011;60852;52.190;4.422;2023-02-11T07:41:29;25.29;;;24.64;;
68942;SDS011;60852;52.190;4.422;2023-02-11T07:43:55;25.41;;;24.55;;
68942;SDS011;60852;52.190;4.422;2023-02-11T07:46:24;25.73;;;24.90;;
68942;SDS011;60852;52.190;4.422;2023-02-11T07:48:51;25.15;;;24.51;;
68942;SDS011;60852;52.190;4.422;2023-02-11T07:51:18;25.56;;;24.91;;
68942;SDS011;60852;52.190;4.422;2023-02-11T07:53:48;26.05;;;25.28;;
68942;SDS011;60852;52.190;4.422;2023-02-11T07:56:16;25.88;;;25.02;;
68942;SDS011;60852;52.190;4.422;2023-02-11T07:58:43;25.80;;;25.16;;
68942;SDS011;60852;52.190;4.422;2023-02-11T08:01:10;24.37;;;24.06;;
68942;SDS011;60852;52.190;4.422;2023-02-11T08:03:38;24.77;;;24.35;;
68942;SDS011;60852;52.190;4.422;2023-02-11T08:06:06;25.40;;;24.85;;
68942;SDS011;60852;52.190;4.422;2023-02-11T08:08:32;25.67;;;24.97;;
68942;SDS011;60852;52.190;4.422;2023-02-11T08:11:03;25.73;;;25.01;;
68942;SDS011;60852;52.190;4.422;2023-02-11T08:13:30;25.09;;;24.47;;
68942;SDS011;60852;52.190;4.422;2023-02-11T08:15:56;24.97;;;24.34;;
68942;SDS011;60852;52.190;4.422;2023-02-11T08:18:22;25.52;;;24.50;;
68942;SDS011;60852;52.190;4.422;2023-02-11T08:20:47;23.59;;;23.07;;
68942;SDS011;60852;52.190;4.422;2023-02-11T08:23:12;24.23;;;23.55;;
68942;SDS011;60852;52.190;4.422;2023-02-11T08:25:38;23.74;;;23.14;;
68942;SDS011;60852;52.190;4.422;2023-02-11T08:28:04;24.49;;;23.60;;
68942;SDS011;60852;52.190;4.422;2023-02-11T08:30:29;23.20;;;22.55;;
68942;SDS011;60852;52.190;4.422;2023-02-11T08:32:55;23.47;;;22.83;;
68942;SDS011;60852;52.190;4.422;2023-02-11T08:35:20;24.62;;;23.61;;
68942;SDS011;60852;52.190;4.422;2023-02-11T08:37:46;23.79;;;22.95;;
68942;SDS011;60852;52.190;4.422;2023-02-11T08:40:11;23.17;;;22.50;;
68942;SDS011;60852;52.190;4.422;2023-02-11T08:42:37;22.60;;;22.02;;
68942;SDS011;60852;52.190;4.422;2023-02-11T08:45:02;22.57;;;22.19;;
68942;SDS011;60852;52.190;4.422;2023-02-11T08:47:29;22.76;;;22.31;;
68942;SDS011;60852;52.190;4.422;2023-02-11T08:49:55;23.05;;;22.27;;
68942;SDS011;60852;52.190;4.422;2023-02-11T08:52:21;22.30;;;21.72;;
68942;SDS011;60852;52.190;4.422;2023-02-11T08:54:46;22.61;;;21.94;;
68942;SDS011;60852;52.190;4.422;2023-02-11T08:57:12;23.23;;;22.37;;
68942;SDS011;60852;52.190;4.422;2023-02-11T08:59:37;21.42;;;20.94;;
68942;SDS011;60852;52.190;4.422;2023-02-11T09:02:04;22.07;;;21.56;;
68942;SDS011;60852;52.190;4.422;2023-02-11T09:04:31;21.45;;;21.03;;
68942;SDS011;60852;52.190;4.422;2023-02-11T09:06:56;20.91;;;20.52;;
68942;SDS011;60852;52.190;4.422;2023-02-11T09:09:22;21.14;;;20.69;;
68942;SDS011;60852;52.190;4.422;2023-02-11T09:11:48;21.42;;;20.86;;
68942;SDS011;60852;52.190;4.422;2023-02-11T09:14:15;20.22;;;19.97;;
68942;SDS011;60852;52.190;4.422;2023-02-11T09:16:43;20.94;;;20.59;;
68942;SDS011;60852;52.190;4.422;2023-02-11T09:19:09;19.44;;;19.17;;
68942;SDS011;60852;52.190;4.422;2023-02-11T09:21:35;19.25;;;18.97;;
68942;SDS011;60852;52.190;4.422;2023-02-11T09:24:01;19.29;;;18.99;;
68942;SDS011;60852;52.190;4.422;2023-02-11T09:26:27;19.08;;;18.52;;
68942;SDS011;60852;52.190;4.422;2023-02-11T09:28:55;18.45;;;17.99;;
68942;SDS011;60852;52.190;4.422;2023-02-11T09:31:23;18.18;;;17.72;;
68942;SDS011;60852;52.190;4.422;2023-02-11T09:33:51;19.04;;;18.61;;
68942;SDS011;60852;52.190;4.422;2023-02-11T09:36:22;17.88;;;17.57;;
68942;SDS011;60852;52.190;4.422;2023-02-11T09:38:50;35.72;;;34.43;;
68942;SDS011;60852;52.190;4.422;2023-02-11T09:43:49;20.07;;;19.70;;
68942;SDS011;60852;52.190;4.422;2023-02-11T09:46:18;18.85;;;18.40;;
68942;SDS011;60852;52.190;4.422;2023-02-11T09:48:47;21.90;;;21.47;;
68942;SDS011;60852;52.190;4.422;2023-02-11T09:51:22;19.47;;;19.01;;
68942;SDS011;60852;52.190;4.422;2023-02-11T09:54:58;19.32;;;18.88;;
68942;SDS011;60852;52.190;4.422;2023-02-11T09:57:03;19.81;;;19.38;;
68942;SDS011;60852;52.190;4.422;2023-02-11T09:59:30;20.20;;;19.55;;
68942;SDS011;60852;52.190;4.422;2023-02-11T10:01:56;20.60;;;19.93;;
68942;SDS011;60852;52.190;4.422;2023-02-11T10:04:43;19.91;;;19.56;;
68942;SDS011;60852;52.190;4.422;2023-02-11T10:07:23;19.28;;;18.88;;
68942;SDS011;60852;52.190;4.422;2023-02-11T10:10:03;19.69;;;19.35;;
68942;SDS011;60852;52.190;4.422;2023-02-11T10:12:40;19.79;;;19.23;;
68942;SDS011;60852;52.190;4.422;2023-02-11T10:15:33;19.85;;;19.38;;
68942;SDS011;60852;52.190;4.422;2023-02-11T10:21:18;20.32;;;19.94;;
68942;SDS011;60852;52.190;4.422;2023-02-11T10:23:56;19.82;;;19.49;;
68942;SDS011;60852;52.190;4.422;2023-02-11T10:26:29;20.42;;;19.82;;
68942;SDS011;60852;52.190;4.422;2023-02-11T10:28:58;19.58;;;19.19;;
68942;SDS011;60852;52.190;4.422;2023-02-11T10:31:35;19.98;;;19.41;;
68942;SDS011;60852;52.190;4.422;2023-02-11T10:34:11;20.11;;;19.69;;
68942;SDS011;60852;52.190;4.422;2023-02-11T10:36:41;19.96;;;19.46;;
68942;SDS011;60852;52.190;4.422;2023-02-11T10:39:12;19.57;;;19.09;;
68942;SDS011;60852;52.190;4.422;2023-02-11T10:41:53;19.76;;;19.19;;
68942;SDS011;60852;52.190;4.422;2023-02-11T10:44:39;19.62;;;19.25;;
68942;SDS011;60852;52.190;4.422;2023-02-11T10:47:16;20.30;;;19.65;;
68942;SDS011;60852;52.190;4.422;2023-02-11T10:49:46;19.78;;;19.21;;
68942;SDS011;60852;52.190;4.422;2023-02-11T10:52:20;19.67;;;19.26;;
68942;SDS011;60852;52.190;4.422;2023-02-11T10:55:14;20.24;;;19.83;;
68942;SDS011;60852;52.190;4.422;2023-02-11T10:57:49;20.22;;;19.67;;
68942;SDS011;60852;52.190;4.422;2023-02-11T11:00:20;19.78;;;19.39;;
68942;SDS011;60852;52.190;4.422;2023-02-11T11:03:04;19.74;;;19.39;;
68942;SDS011;60852;52.190;4.422;2023-02-11T11:05:47;20.97;;;20.25;;
68942;SDS011;60852;52.190;4.422;2023-02-11T11:08:19;19.78;;;19.40;;
68942;SDS011;60852;52.190;4.422;2023-02-11T11:10:46;20.05;;;19.65;;
68942;SDS011;60852;52.190;4.422;2023-02-11T11:13:37;20.17;;;19.71;;
68942;SDS011;60852;52.190;4.422;2023-02-11T11:16:17;19.62;;;19.33;;
68942;SDS011;60852;52.190;4.422;2023-02-11T11:18:47;19.87;;;19.53;;
68942;SDS011;60852;52.190;4.422;2023-02-11T11:21:21;19.69;;;19.36;;
68942;SDS011;60852;52.190;4.422;2023-02-11T11:23:54;20.40;;;19.82;;
68942;SDS011;60852;52.190;4.422;2023-02-11T11:26:23;19.80;;;19.35;;
68942;SDS011;60852;52.190;4.422;2023-02-11T11:28:53;19.75;;;19.38;;
68942;SDS011;60852;52.190;4.422;2023-02-11T11:31:24;19.49;;;19.19;;
68942;SDS011;60852;52.190;4.422;2023-02-11T11:33:54;19.78;;;19.51;;
68942;SDS011;60852;52.190;4.422;2023-02-11T11:36:34;21.19;;;20.74;;
68942;SDS011;60852;52.190;4.422;2023-02-11T11:39:25;20.70;;;20.34;;
68942;SDS011;60852;52.190;4.422;2023-02-11T11:41:55;19.27;;;19.01;;
68942;SDS011;60852;52.190;4.422;2023-02-11T11:44:26;18.77;;;18.51;;
68942;SDS011;60852;52.190;4.422;2023-02-11T11:49:43;19.42;;;18.94;;
68942;SDS011;60852;52.190;4.422;2023-02-11T11:55:00;18.67;;;18.21;;
68942;SDS011;60852;52.190;4.422;2023-02-11T11:57:36;19.55;;;19.12;;
68942;SDS011;60852;52.190;4.422;2023-02-11T12:00:03;18.29;;;17.82;;
68942;SDS011;60852;52.190;4.422;2023-02-11T12:05:12;17.86;;;17.61;;
68942;SDS011;60852;52.190;4.422;2023-02-11T12:07:59;19.14;;;18.46;;
68942;SDS011;60852;52.190;4.422;2023-02-11T12:10:57;18.41;;;17.84;;
68942;SDS011;60852;52.190;4.422;2023-02-11T12:13:36;18.09;;;17.65;;
68942;SDS011;60852;52.190;4.422;2023-02-11T12:16:23;18.39;;;17.76;;
68942;SDS011;60852;52.190;4.422;2023-02-11T12:27:54;17.24;;;16.82;;
68942;SDS011;60852;52.190;4.422;2023-02-11T12:42:35;17.05;;;16.70;;
68942;SDS011;60852;52.190;4.422;2023-02-11T12:45:32;16.76;;;16.37;;
68942;SDS011;60852;52.190;4.422;2023-02-11T12:50:52;15.59;;;15.29;;
68942;SDS011;60852;52.190;4.422;2023-02-11T12:56:35;15.61;;;15.42;;
68942;SDS011;60852;52.190;4.422;2023-02-11T12:59:33;15.64;;;15.31;;
68942;SDS011;60852;52.190;4.422;2023-02-11T13:02:08;15.23;;;15.12;;
68942;SDS011;60852;52.190;4.422;2023-02-11T13:04:46;14.74;;;14.56;;
68942;SDS011;60852;52.190;4.422;2023-02-11T13:07:29;15.05;;;14.85;;
68942;SDS011;60852;52.190;4.422;2023-02-11T13:10:15;14.45;;;14.12;;
68942;SDS011;60852;52.190;4.422;2023-02-11T13:12:50;14.35;;;14.09;;
68942;SDS011;60852;52.190;4.422;2023-02-11T13:15:37;14.36;;;14.13;;
68942;SDS011;60852;52.190;4.422;2023-02-11T13:23:48;14.43;;;14.27;;
68942;SDS011;60852;52.190;4.422;2023-02-11T13:26:30;13.92;;;13.61;;
68942;SDS011;60852;52.190;4.422;2023-02-11T13:29:17;14.24;;;13.94;;
68942;SDS011;60852;52.190;4.422;2023-02-11T13:32:10;13.41;;;13.19;;
68942;SDS011;60852;52.190;4.422;2023-02-11T13:37:22;13.56;;;13.46;;
68942;SDS011;60852;52.190;4.422;2023-02-11T13:40:33;13.34;;;13.14;;
68942;SDS011;60852;52.190;4.422;2023-02-11T13:42:52;12.63;;;12.56;;
68942;SDS011;60852;52.190;4.422;2023-02-11T13:45:28;13.12;;;13.05;;
68942;SDS011;60852;52.190;4.422;2023-02-11T13:50:54;13.09;;;13.05;;
68942;SDS011;60852;52.190;4.422;2023-02-11T13:53:26;12.55;;;12.37;;
68942;SDS011;60852;52.190;4.422;2023-02-11T13:56:03;13.05;;;12.84;;
68942;SDS011;60852;52.190;4.422;2023-02-11T13:58:37;12.95;;;12.61;;
68942;SDS011;60852;52.190;4.422;2023-02-11T14:01:17;12.49;;;12.25;;
68942;SDS011;60852;52.190;4.422;2023-02-11T14:04:35;11.94;;;11.84;;
68942;SDS011;60852;52.190;4.422;2023-02-11T14:07:20;12.49;;;12.36;;
68942;SDS011;60852;52.190;4.422;2023-02-11T14:16:04;12.31;;;12.16;;
68942;SDS011;60852;52.190;4.422;2023-02-11T14:23:51;12.72;;;12.58;;
68942;SDS011;60852;52.190;4.422;2023-02-11T14:31:44;12.28;;;12.14;;
68942;SDS011;60852;52.190;4.422;2023-02-11T14:37:25;11.68;;;11.56;;
68942;SDS011;60852;52.190;4.422;2023-02-11T14:42:50;11.82;;;11.76;;
68942;SDS011;60852;52.190;4.422;2023-02-11T14:45:19;11.35;;;11.23;;
68942;SDS011;60852;52.190;4.422;2023-02-11T14:48:02;11.31;;;11.26;;
68942;SDS011;60852;52.190;4.422;2023-02-11T14:50:33;11.52;;;11.42;;
68942;SDS011;60852;52.190;4.422;2023-02-11T14:53:18;11.28;;;11.15;;
68942;SDS011;60852;52.190;4.422;2023-02-11T14:55:48;11.38;;;11.28;;
68942;SDS011;60852;52.190;4.422;2023-02-11T15:03:42;10.86;;;10.75;;
68942;SDS011;60852;52.190;4.422;2023-02-11T15:06:15;10.99;;;10.93;;
68942;SDS011;60852;52.190;4.422;2023-02-11T15:08:51;10.55;;;10.49;;
68942;SDS011;60852;52.190;4.422;2023-02-11T15:11:25;10.23;;;10.13;;
68942;SDS011;60852;52.190;4.422;2023-02-11T15:13:54;10.26;;;10.11;;
68942;SDS011;60852;52.190;4.422;2023-02-11T15:16:30;10.46;;;10.40;;
68942;SDS011;60852;52.190;4.422;2023-02-11T15:18:57;9.86;;;9.81;;
68942;SDS011;60852;52.190;4.422;2023-02-11T15:21:28;10.02;;;9.94;;
68942;SDS011;60852;52.190;4.422;2023-02-11T15:24:20;9.94;;;9.93;;
68942;SDS011;60852;52.190;4.422;2023-02-11T15:29:36;9.67;;;9.59;;
68942;SDS011;60852;52.190;4.422;2023-02-11T15:32:11;9.45;;;9.37;;
68942;SDS011;60852;52.190;4.422;2023-02-11T15:34:41;9.56;;;9.56;;
68942;SDS011;60852;52.190;4.422;2023-02-11T15:37:09;9.42;;;9.37;;
68942;SDS011;60852;52.190;4.422;2023-02-11T15:39:39;9.44;;;9.38;;
68942;SDS011;60852;52.190;4.422;2023-02-11T15:48:26;9.74;;;9.66;;
68942;SDS011;60852;52.190;4.422;2023-02-11T15:50:47;10.06;;;10.06;;
68942;SDS011;60852;52.190;4.422;2023-02-11T15:55:45;10.13;;;10.11;;
68942;SDS011;60852;52.190;4.422;2023-02-11T15:58:13;15.21;;;15.12;;
68942;SDS011;60852;52.190;4.422;2023-02-11T16:00:44;20.98;;;20.61;;
68942;SDS011;60852;52.190;4.422;2023-02-11T16:03:23;12.94;;;12.89;;
68942;SDS011;60852;52.190;4.422;2023-02-11T16:05:52;16.61;;;16.41;;
68942;SDS011;60852;52.190;4.422;2023-02-11T16:08:22;9.86;;;9.81;;
68942;SDS011;60852;52.190;4.422;2023-02-11T16:10:57;9.72;;;9.72;;
68942;SDS011;60852;52.190;4.422;2023-02-11T16:13:27;9.13;;;9.13;;
68942;SDS011;60852;52.190;4.422;2023-02-11T16:15:59;10.04;;;10.02;;
68942;SDS011;60852;52.190;4.422;2023-02-11T16:21:04;8.99;;;8.97;;
68942;SDS011;60852;52.190;4.422;2023-02-11T16:23:37;11.03;;;11.02;;
68942;SDS011;60852;52.190;4.422;2023-02-11T16:26:11;9.52;;;9.50;;
68942;SDS011;60852;52.190;4.422;2023-02-11T16:28:48;13.37;;;13.36;;
68942;SDS011;60852;52.190;4.422;2023-02-11T16:31:15;11.92;;;11.83;;
68942;SDS011;60852;52.190;4.422;2023-02-11T16:33:41;13.60;;;13.40;;
68942;SDS011;60852;52.190;4.422;2023-02-11T16:36:14;10.74;;;10.71;;
68942;SDS011;60852;52.190;4.422;2023-02-11T16:38:43;11.14;;;11.10;;
68942;SDS011;60852;52.190;4.422;2023-02-11T16:41:08;12.51;;;12.38;;
68942;SDS011;60852;52.190;4.422;2023-02-11T16:43:37;14.01;;;13.81;;
68942;SDS011;60852;52.190;4.422;2023-02-11T16:46:03;10.94;;;10.91;;
68942;SDS011;60852;52.190;4.422;2023-02-11T16:48:29;9.93;;;9.91;;
68942;SDS011;60852;52.190;4.422;2023-02-11T16:50:56;11.17;;;11.12;;
68942;SDS011;60852;52.190;4.422;2023-02-11T16:53:23;10.44;;;10.44;;
68942;SDS011;60852;52.190;4.422;2023-02-11T16:55:50;10.38;;;10.37;;
68942;SDS011;60852;52.190;4.422;2023-02-11T16:58:17;11.53;;;11.53;;
68942;SDS011;60852;52.190;4.422;2023-02-11T17:00:43;10.33;;;10.27;;